Time;durP1;ratioP1;P1;durP2;ratioP2;P2;SDS_P1;SDS_P2;PMS_P1;PMS_P2;Temp;Humidity;BMP_temperature;BMP_pressure;BME280_temperature;BME280_humidity;BME280_pressure;Samples;Min_cycle;Max_cycle;Signal;HPM_P1;HPM_P2
2021/12/29 00:00:54;;;;;;;65.17;41.63;;;;;;;7.71;69.79;94469.16;5035548;28;20530;-63
2021/12/29 00:03:21;;;;;;;69.43;42.87;;;;;;;7.41;70.97;94475.91;5047257;28;20449;-63
2021/12/29 00:05:49;;;;;;;68.33;42.80;;;;;;;7.25;72.18;94477.56;5044523;28;20451;-63
2021/12/29 00:08:16;;;;;;;63.07;39.47;;;;;;;7.40;71.75;94474.31;5047843;28;20821;-62
2021/12/29 00:10:43;;;;;;;64.80;40.37;;;;;;;7.62;71.68;94482.88;5050675;28;20840;-63
2021/12/29 00:13:10;;;;;;;67.27;41.03;;;;;;;7.72;71.06;94478.53;5050777;28;20439;-63
2021/12/29 00:15:37;;;;;;;65.77;40.70;;;;;;;7.85;70.62;94478.13;5050711;28;20518;-63
2021/12/29 00:18:04;;;;;;;60.37;37.60;;;;;;;7.72;70.72;94465.50;5049704;28;20467;-63
2021/12/29 00:20:32;;;;;;;63.93;39.67;;;;;;;7.52;70.28;94467.91;5050062;28;20521;-62
2021/12/29 00:23:02;;;;;;;60.57;38.30;;;;;;;7.38;70.85;94448.50;5050105;28;20822;-62
2021/12/29 00:25:30;;;;;;;56.67;36.27;;;;;;;7.68;70.37;94455.81;5032516;28;20491;-64
2021/12/29 00:27:59;;;;;;;57.87;34.93;;;;;;;7.80;69.61;94448.63;5042489;28;20460;-63
2021/12/29 00:30:27;;;;;;;55.70;35.10;;;;;;;7.89;69.90;94452.34;5034076;28;20490;-63
2021/12/29 00:32:59;;;;;;;54.10;34.87;;;;;;;7.99;69.64;94457.66;5046330;28;20500;-64
2021/12/29 00:35:46;;;;;;;53.40;34.43;;;;;;;7.85;69.60;94451.25;5041288;28;20977;-63
2021/12/29 00:38:32;;;;;;;53.10;34.20;;;;;;;7.78;69.85;94461.13;5047061;28;20469;-62
2021/12/29 00:41:19;;;;;;;53.87;35.03;;;;;;;7.88;69.18;94461.97;5050334;28;20450;-62
2021/12/29 00:44:09;;;;;;;48.80;31.83;;;;;;;8.05;69.34;94456.63;5039123;28;20486;-63
2021/12/29 00:46:38;;;;;;;50.00;32.80;;;;;;;7.99;69.40;94447.97;5049612;28;20455;-62
2021/12/29 00:49:08;;;;;;;49.47;32.47;;;;;;;8.05;69.37;94454.03;5050151;28;20961;-63
2021/12/29 00:51:35;;;;;;;53.20;35.13;;;;;;;7.75;69.56;94456.41;5049916;28;20637;-62
2021/12/29 00:54:03;;;;;;;52.03;33.17;;;;;;;7.61;70.81;94469.03;5049557;28;20969;-63
2021/12/29 00:56:30;;;;;;;51.97;34.20;;;;;;;7.43;70.83;94471.22;5033794;28;20430;-63
2021/12/29 00:58:57;;;;;;;59.70;37.43;;;;;;;7.72;69.96;94459.50;5046283;28;20479;-64
2021/12/29 01:01:24;;;;;;;63.53;38.53;;;;;;;7.83;70.22;94463.75;5046272;28;20439;-63
2021/12/29 01:03:52;;;;;;;71.47;42.50;;;;;;;7.77;70.67;94462.16;5045254;28;20447;-62
2021/12/29 01:06:19;;;;;;;74.23;44.13;;;;;;;7.68;70.60;94456.59;5050884;28;20442;-62
2021/12/29 01:08:46;;;;;;;71.70;43.43;;;;;;;7.73;69.83;94443.63;5049404;28;20449;-63
2021/12/29 01:11:14;;;;;;;66.80;42.67;;;;;;;7.81;70.34;94445.00;5049836;28;20562;-63
2021/12/29 01:13:47;;;;;;;71.47;43.43;;;;;;;7.74;69.95;94450.38;5049530;28;20949;-62
2021/12/29 01:16:36;;;;;;;72.37;42.87;;;;;;;7.87;69.71;94444.78;5049427;28;21281;-62
2021/12/29 01:19:14;;;;;;;68.63;42.37;;;;;;;7.70;70.82;94443.31;5048755;28;20450;-64
2021/12/29 01:21:44;;;;;;;64.10;39.00;;;;;;;7.83;70.56;94442.88;5049884;28;20439;-63
2021/12/29 01:24:13;;;;;;;61.27;37.30;;;;;;;7.84;70.93;94445.28;5049001;28;20439;-63
2021/12/29 01:26:42;;;;;;;53.13;33.63;;;;;;;8.00;69.96;94428.69;5049308;28;20439;-62
2021/12/29 01:29:11;;;;;;;54.17;34.47;;;;;;;8.17;69.69;94428.56;5037070;28;21181;-63
2021/12/29 01:31:39;;;;;;;53.43;35.03;;;;;;;8.22;69.11;94415.53;5040261;28;20481;-63
2021/12/29 01:34:07;;;;;;;52.33;33.37;;;;;;;7.98;69.78;94428.16;5043622;28;20453;-63
2021/12/29 01:36:36;;;;;;;49.33;32.33;;;;;;;8.19;69.18;94416.03;5044984;28;20442;-63
2021/12/29 01:39:05;;;;;;;49.37;32.03;;;;;;;8.15;69.89;94420.97;5044365;28;20976;-64
2021/12/29 01:41:33;;;;;;;50.97;31.57;;;;;;;8.03;69.66;94411.75;5049614;28;20439;-64
2021/12/29 01:44:02;;;;;;;49.03;30.57;;;;;;;8.21;70.16;94414.72;5048744;28;20443;-63
2021/12/29 01:46:29;;;;;;;49.43;30.10;;;;;;;8.19;69.80;94410.81;5048993;28;20450;-64
2021/12/29 01:48:57;;;;;;;43.73;29.30;;;;;;;8.37;69.79;94418.25;5049113;28;20445;-62
2021/12/29 01:51:24;;;;;;;42.73;28.57;;;;;;;8.26;70.72;94411.41;5049373;28;21320;-62
2021/12/29 01:54:04;;;;;;;38.87;26.30;;;;;;;8.29;70.63;94405.69;5048638;28;21096;-64
2021/12/29 01:56:32;;;;;;;40.53;26.37;;;;;;;8.40;70.74;94396.88;5047235;28;20502;-64
2021/12/29 01:58:59;;;;;;;41.43;25.47;;;;;;;8.28;70.07;94396.28;5042023;28;20443;-65
2021/12/29 02:01:26;;;;;;;35.47;24.03;;;;;;;8.34;70.53;94382.22;5038720;28;20465;-63
2021/12/29 02:03:55;;;;;;;39.00;25.90;;;;;;;8.18;71.03;94376.09;5046098;28;20446;-63
2021/12/29 02:06:22;;;;;;;40.30;25.53;;;;;;;8.10;71.66;94381.78;5046960;28;20455;-63
2021/12/29 02:08:51;;;;;;;41.60;25.37;;;;;;;8.27;71.81;94371.22;5047983;28;20477;-63
2021/12/29 02:11:25;;;;;;;40.10;24.47;;;;;;;8.35;71.33;94373.34;5048708;28;20505;-62
2021/12/29 02:13:52;;;;;;;36.07;23.33;;;;;;;8.55;70.72;94377.88;5048342;28;20443;-62
2021/12/29 02:16:19;;;;;;;37.23;23.80;;;;;;;8.45;70.94;94370.00;5026961;28;20448;-63
2021/12/29 02:19:02;;;;;;;38.83;24.53;;;;;;;8.64;70.24;94358.84;5043581;28;20501;-63
2021/12/29 02:21:32;;;;;;;116.53;85.80;;;;;;;8.31;70.25;94361.06;5046194;28;20520;-62
2021/12/29 02:26:31;;;;;;;124.93;89.43;;;;;;;8.17;70.66;94345.03;5046033;28;20870;-63
2021/12/29 02:29:01;;;;;;;117.00;83.13;;;;;;;7.96;70.12;94332.91;5042588;28;20508;-63
2021/12/29 02:31:28;;;;;;;104.63;70.97;;;;;;;7.94;71.08;94324.56;5038176;28;22398;-64
2021/12/29 02:33:57;;;;;;;94.53;66.00;;;;;;;8.12;70.95;94331.94;5046346;28;20477;-63
2021/12/29 02:36:25;;;;;;;92.90;62.67;;;;;;;8.22;70.14;94337.22;5047765;28;20489;-63
2021/12/29 02:38:54;;;;;;;82.40;55.67;;;;;;;8.14;70.46;94333.28;5046807;28;20443;-62
2021/12/29 02:41:27;;;;;;;67.20;44.87;;;;;;;7.99;71.58;94335.03;5048361;28;21117;-63
2021/12/29 02:44:00;;;;;;;61.60;37.70;;;;;;;7.94;71.71;94330.56;5047773;28;20451;-63
2021/12/29 02:46:29;;;;;;;59.97;36.63;;;;;;;7.95;72.02;94331.34;5047970;28;20477;-64
2021/12/29 02:49:02;;;;;;;55.87;32.77;;;;;;;7.83;72.77;94333.34;5047943;28;20796;-63
2021/12/29 02:51:32;;;;;;;50.77;31.67;;;;;;;8.31;71.64;94335.75;5048075;28;20487;-63
2021/12/29 02:54:00;;;;;;;52.90;33.87;;;;;;;8.41;71.09;94335.78;5047703;28;20446;-63
2021/12/29 02:56:27;;;;;;;49.57;31.53;;;;;;;8.38;71.29;94325.84;5048531;28;20453;-62
2021/12/29 02:58:56;;;;;;;49.20;31.40;;;;;;;8.39;70.99;94335.28;5030256;28;20444;-63
2021/12/29 03:01:24;;;;;;;50.20;31.97;;;;;;;8.39;70.73;94322.22;5043852;28;20466;-63
2021/12/29 03:03:51;;;;;;;50.30;31.17;;;;;;;8.42;70.77;94332.13;5040924;28;20506;-63
2021/12/29 03:06:19;;;;;;;50.87;31.13;;;;;;;8.47;70.23;94334.75;5040299;28;20447;-63
2021/12/29 03:08:46;;;;;;;54.77;34.13;;;;;;;8.51;70.34;94333.22;5047236;28;20857;-63
2021/12/29 03:11:13;;;;;;;51.93;32.33;;;;;;;8.74;70.04;94319.69;5047394;28;20883;-62
2021/12/29 03:13:41;;;;;;;56.00;33.97;;;;;;;8.69;69.23;94311.84;5043822;28;20455;-64
2021/12/29 03:16:09;;;;;;;57.87;38.10;;;;;;;8.47;70.22;94319.09;5047639;28;20447;-61
2021/12/29 03:18:36;;;;;;;62.57;39.97;;;;;;;8.60;70.60;94318.63;5026488;28;20440;-62
2021/12/29 03:21:03;;;;;;;63.07;38.47;;;;;;;8.44;70.68;94298.72;5023538;28;20450;-64
2021/12/29 03:23:31;;;;;;;56.43;36.67;;;;;;;8.44;69.89;94311.78;5027553;28;21326;-63
2021/12/29 03:25:58;;;;;;;59.97;37.43;;;;;;;8.53;70.21;94315.47;5027929;28;20443;-62
2021/12/29 03:28:26;;;;;;;60.20;38.50;;;;;;;8.66;70.13;94312.38;5026837;28;20452;-61
2021/12/29 03:30:55;;;;;;;60.07;39.07;;;;;;;8.55;70.38;94305.56;5028040;28;20455;-63
2021/12/29 03:33:25;;;;;;;59.03;38.27;;;;;;;8.47;70.24;94303.44;5026684;28;20465;-63
2021/12/29 03:35:55;;;;;;;59.43;38.40;;;;;;;8.61;70.33;94303.75;5027264;28;20432;-62
2021/12/29 03:38:24;;;;;;;65.27;41.43;;;;;;;8.51;70.19;94288.81;5011096;28;20436;-62
2021/12/29 03:40:52;;;;;;;59.50;37.90;;;;;;;7.80;71.84;94292.94;5027237;28;20440;-62
2021/12/29 03:43:19;;;;;;;64.97;39.50;;;;;;;8.17;71.86;94303.28;5026703;28;20443;-62
2021/12/29 03:45:48;;;;;;;64.20;42.57;;;;;;;8.50;70.12;94300.31;5027299;28;21232;-62
2021/12/29 03:48:16;;;;;;;67.77;43.93;;;;;;;8.63;70.27;94302.44;5026215;28;20834;-62
2021/12/29 03:50:43;;;;;;;67.43;42.97;;;;;;;8.43;70.59;94296.38;5027359;28;20451;-63
2021/12/29 03:53:12;;;;;;;65.17;42.13;;;;;;;8.31;71.16;94309.63;5012267;28;20485;-63
2021/12/29 03:55:41;;;;;;;69.90;43.23;;;;;;;8.16;71.32;94302.50;5016325;28;20670;-62
2021/12/29 03:58:08;;;;;;;70.67;42.47;;;;;;;8.16;70.78;94299.91;5024772;28;20456;-64
2021/12/29 04:00:36;;;;;;;70.13;44.27;;;;;;;8.03;70.57;94299.56;5027198;28;20444;-63
2021/12/29 04:03:05;;;;;;;69.17;44.20;;;;;;;7.38;72.57;94278.31;5023130;28;20436;-62
2021/12/29 04:05:32;;;;;;;70.53;43.57;;;;;;;7.57;73.30;94295.13;5027213;28;20539;-62
2021/12/29 04:08:01;;;;;;;64.87;42.07;;;;;;;7.67;72.53;94289.97;5026137;28;20837;-62
2021/12/29 04:10:30;;;;;;;67.83;43.47;;;;;;;7.56;72.45;94301.38;5026913;28;20464;-62
2021/12/29 04:12:58;;;;;;;72.00;44.37;;;;;;;7.82;72.17;94295.28;5026887;28;20847;-63
2021/12/29 04:15:25;;;;;;;70.30;42.37;;;;;;;7.67;71.79;94300.41;5027157;28;20440;-62
2021/12/29 04:17:58;;;;;;;67.93;41.73;;;;;;;7.78;72.05;94286.38;5039086;28;20869;-62
2021/12/29 04:23:14;;;;;;;66.17;40.77;;;;;;;7.96;71.06;94285.97;5044774;28;20443;-62
2021/12/29 04:25:45;;;;;;;63.70;40.80;;;;;;;7.87;70.68;94288.28;5046879;28;20774;-63
2021/12/29 04:28:16;;;;;;;65.37;40.67;;;;;;;7.92;71.59;94287.50;5046006;28;20513;-63
2021/12/29 04:30:43;;;;;;;65.67;41.23;;;;;;;7.94;71.26;94288.03;5046840;28;20450;-63
2021/12/29 04:33:10;;;;;;;63.37;39.87;;;;;;;7.88;70.83;94284.59;5049103;28;20494;-62
2021/12/29 04:35:37;;;;;;;69.40;43.17;;;;;;;7.87;70.95;94282.25;5051109;28;20439;-62
2021/12/29 04:38:04;;;;;;;72.23;46.13;;;;;;;7.58;71.09;94286.25;5049312;28;21039;-63
2021/12/29 04:40:31;;;;;;;69.17;44.10;;;;;;;7.50;72.12;94286.75;5050112;28;20443;-63
2021/12/29 04:42:58;;;;;;;70.17;44.27;;;;;;;7.54;72.65;94287.78;5047779;28;20435;-63
2021/12/29 04:45:26;;;;;;;67.80;43.30;;;;;;;7.38;72.98;94299.16;5048910;28;20521;-63
2021/12/29 04:47:53;;;;;;;67.63;43.57;;;;;;;7.66;72.44;94296.22;5046373;28;20442;-63
2021/12/29 04:50:27;;;;;;;65.43;42.73;;;;;;;7.52;72.44;94290.66;5047889;28;20450;-63
2021/12/29 04:53:00;;;;;;;66.00;42.93;;;;;;;7.66;72.11;94317.09;5049690;28;20482;-62
2021/12/29 04:55:28;;;;;;;71.23;44.23;;;;;;;7.86;71.68;94309.41;5049953;28;21023;-65
2021/12/29 04:57:58;;;;;;;67.53;41.87;;;;;;;7.94;70.64;94309.69;5049094;28;20841;-64
2021/12/29 05:00:32;;;;;;;67.03;41.37;;;;;;;7.61;72.15;94314.47;5048036;28;20439;-63
2021/12/29 05:02:59;;;;;;;69.43;40.90;;;;;;;7.59;72.11;94306.09;5048998;28;20451;-64
2021/12/29 05:10:47;;;;;;;64.20;39.60;;;;;;;7.66;72.29;94317.09;5049613;28;20474;-63
2021/12/29 05:13:15;;;;;;;66.13;39.33;;;;;;;7.67;71.99;94318.66;5049183;28;20478;-63
2021/12/29 05:15:42;;;;;;;63.23;39.47;;;;;;;7.47;72.89;94308.88;5049797;28;20982;-62
2021/12/29 05:18:10;;;;;;;62.70;38.50;;;;;;;6.91;75.47;94318.06;5048903;28;20536;-63
2021/12/29 05:20:37;;;;;;;66.27;39.73;;;;;;;6.74;75.79;94306.94;5047905;28;20439;-64
2021/12/29 05:23:05;;;;;;;62.43;38.43;;;;;;;7.14;75.07;94314.34;5049203;28;21048;-66
2021/12/29 05:25:32;;;;;;;69.23;38.77;;;;;;;7.35;73.97;94315.31;5049780;28;20439;-63
2021/12/29 05:27:59;;;;;;;63.77;38.73;;;;;;;7.45;73.11;94320.56;5049038;28;20449;-63
2021/12/29 05:30:27;;;;;;;64.90;38.47;;;;;;;7.44;73.13;94313.81;5046101;28;20481;-64
2021/12/29 05:32:55;;;;;;;63.88;38.78;;;;;;;7.62;72.60;94331.66;5044663;28;20852;-62
2021/12/29 05:35:27;;;;;;;61.83;38.23;;;;;;;7.57;72.78;94318.59;5049661;28;20216;-63
2021/12/29 05:37:55;;;;;;;60.73;38.07;;;;;;;7.83;72.29;94328.13;5049009;28;20435;-63
2021/12/29 05:40:23;;;;;;;64.97;39.63;;;;;;;7.89;71.81;94333.16;5049362;28;20439;-64
2021/12/29 05:42:50;;;;;;;64.07;39.83;;;;;;;7.66;71.97;94330.91;5049164;28;20442;-63
2021/12/29 05:45:17;;;;;;;62.63;38.17;;;;;;;7.76;71.86;94328.38;5048716;28;21011;-64
2021/12/29 05:47:46;;;;;;;59.17;37.25;;;;;;;7.72;72.41;94334.34;5048817;28;20526;-64
2021/12/29 05:50:17;;;;;;;60.73;37.10;;;;;;;7.84;72.04;94332.31;5045560;28;20208;-63
2021/12/29 05:52:44;;;;;;;55.53;34.87;;;;;;;7.84;72.68;94334.94;5048826;28;20511;-63
2021/12/29 05:55:12;;;;;;;60.97;36.10;;;;;;;7.66;72.58;94322.31;5049046;28;20958;-63
2021/12/29 05:57:39;;;;;;;59.10;37.20;;;;;;;7.49;73.54;94334.69;5046247;28;20439;-62
2021/12/29 06:00:10;;;;;;;61.60;37.77;;;;;;;7.88;71.88;94330.78;5048818;28;20443;-62
2021/12/29 06:02:38;;;;;;;58.67;36.77;;;;;;;7.95;71.74;94323.53;5048694;28;20534;-63
2021/12/29 06:05:09;;;;;;;57.27;36.00;;;;;;;8.15;70.97;94323.63;5048821;28;20530;-64
2021/12/29 06:07:37;;;;;;;61.10;38.23;;;;;;;8.19;71.29;94327.31;5049109;28;20442;-64
2021/12/29 06:10:07;;;;;;;60.63;37.50;;;;;;;8.03;71.66;94325.66;5048715;28;20451;-63
2021/12/29 06:12:36;;;;;;;60.90;38.17;;;;;;;8.03;71.71;94329.03;5031561;28;21076;-63
2021/12/29 06:15:04;;;;;;;59.37;39.00;;;;;;;7.97;71.04;94329.28;5028701;28;20459;-64
2021/12/29 06:17:31;;;;;;;63.37;39.67;;;;;;;8.23;71.19;94323.13;5027272;28;20970;-63
2021/12/29 06:19:58;;;;;;;59.63;37.87;;;;;;;8.25;70.58;94326.31;5028559;28;20444;-63
2021/12/29 06:22:25;;;;;;;61.73;38.00;;;;;;;8.01;71.71;94325.13;5027469;28;21042;-64
2021/12/29 06:24:52;;;;;;;62.30;37.90;;;;;;;8.11;70.85;94328.56;5028432;28;20444;-63
2021/12/29 06:27:21;;;;;;;58.53;38.00;;;;;;;8.27;70.95;94339.88;5025949;28;20466;-63
2021/12/29 06:29:49;;;;;;;59.17;36.80;;;;;;;8.08;70.64;94336.13;5027741;28;20455;-63
2021/12/29 06:32:16;;;;;;;54.57;35.10;;;;;;;8.04;71.34;94345.50;5027753;28;20519;-64
2021/12/29 06:34:44;;;;;;;56.67;35.23;;;;;;;7.98;71.05;94346.50;5027863;28;20451;-63
2021/12/29 06:37:12;;;;;;;60.77;36.97;;;;;;;8.13;70.56;94351.81;5027450;28;20458;-64
2021/12/29 06:39:41;;;;;;;59.53;37.20;;;;;;;8.09;70.97;94345.50;5026659;28;20444;-63
2021/12/29 06:42:09;;;;;;;54.83;34.93;;;;;;;8.20;70.41;94345.31;5027906;28;20216;-63
2021/12/29 06:44:37;;;;;;;60.67;35.87;;;;;;;8.45;70.44;94343.91;5025880;28;20440;-63
2021/12/29 06:47:05;;;;;;;52.93;34.97;;;;;;;8.62;69.44;94342.66;5027174;28;20531;-62
2021/12/29 06:49:32;;;;;;;60.43;37.37;;;;;;;8.54;69.87;94350.22;5026354;28;20448;-63
2021/12/29 06:52:00;;;;;;;59.23;34.73;;;;;;;8.26;70.86;94346.16;5027336;28;20498;-63
2021/12/29 06:54:27;;;;;;;61.97;35.70;;;;;;;8.59;70.73;94351.00;5027116;28;20462;-62
2021/12/29 07:00:37;;;;;;;59.63;38.43;;;;;;;8.76;69.55;94343.72;5026090;28;20438;-63
2021/12/29 07:03:05;;;;;;;58.00;37.07;;;;;;;8.55;69.99;94352.56;5027135;28;20452;-63
2021/12/29 07:05:33;;;;;;;59.83;38.43;;;;;;;8.56;70.14;94354.13;5026367;28;20962;-64
2021/12/29 07:08:00;;;;;;;62.20;39.57;;;;;;;8.46;70.97;94354.09;5026621;28;20456;-62
2021/12/29 07:10:28;;;;;;;72.67;46.77;;;;;;;8.48;71.59;94356.44;5027145;28;20432;-63
2021/12/29 07:12:55;;;;;;;92.90;57.23;;;;;;;8.57;70.93;94350.47;5025854;28;20478;-63
2021/12/29 07:15:22;;;;;;;109.33;69.23;;;;;;;8.63;70.70;94359.13;5026056;28;20451;-62
2021/12/29 07:17:50;;;;;;;115.20;70.10;;;;;;;8.42;70.83;94360.06;5025921;28;20503;-62
2021/12/29 07:20:17;;;;;;;123.77;77.03;;;;;;;8.55;71.26;94365.63;5027339;28;20539;-62
2021/12/29 07:22:44;;;;;;;114.20;73.80;;;;;;;8.40;71.45;94357.72;5026816;28;20539;-62
2021/12/29 07:25:12;;;;;;;105.17;68.33;;;;;;;8.64;72.48;94371.13;5026912;28;20523;-62
2021/12/29 07:27:39;;;;;;;120.40;79.00;;;;;;;8.82;72.01;94366.22;5027183;28;21285;-61
2021/12/29 07:30:06;;;;;;;142.23;98.60;;;;;;;8.80;71.82;94360.47;5027710;28;20815;-62
2021/12/29 07:32:33;;;;;;;175.90;116.90;;;;;;;8.88;72.01;94367.81;5027611;28;20856;-62
2021/12/29 07:35:00;;;;;;;113.47;70.00;;;;;;;8.66;72.59;94375.06;5028121;28;20446;-62
2021/12/29 07:37:27;;;;;;;95.47;61.43;;;;;;;9.02;71.84;94363.66;5028185;28;20444;-60
2021/12/29 07:39:54;;;;;;;97.47;60.63;;;;;;;8.67;72.31;94366.16;5028183;28;20447;-64
2021/12/29 07:42:21;;;;;;;100.10;63.87;;;;;;;8.75;72.86;94368.31;5025487;28;20460;-61
2021/12/29 07:44:51;;;;;;;161.33;100.03;;;;;;;9.02;71.48;94370.72;5025315;28;20444;-63
2021/12/29 07:47:18;;;;;;;282.97;197.17;;;;;;;8.63;71.77;94367.72;5024308;28;20986;-63
2021/12/29 07:49:47;;;;;;;120.47;78.70;;;;;;;8.23;73.09;94369.34;5028439;28;20444;-65
2021/12/29 07:52:15;;;;;;;89.17;54.80;;;;;;;8.59;72.64;94369.28;5028082;28;21040;-64
2021/12/29 07:54:42;;;;;;;88.33;56.13;;;;;;;8.44;73.18;94368.44;5026884;28;20452;-65
2021/12/29 07:57:09;;;;;;;82.13;51.70;;;;;;;8.02;74.22;94378.88;5027830;28;20447;-65
2021/12/29 07:59:36;;;;;;;67.83;43.67;;;;;;;7.95;74.36;94373.09;5027052;28;20443;-65
2021/12/29 08:02:04;;;;;;;78.63;49.70;;;;;;;8.36;73.54;94380.13;5027666;28;20444;-64
2021/12/29 08:04:31;;;;;;;110.20;74.77;;;;;;;8.44;73.67;94371.03;5039506;28;20443;-62
2021/12/29 08:06:58;;;;;;;92.73;62.67;;;;;;;8.52;72.96;94381.78;5048166;28;20537;-63
2021/12/29 08:09:26;;;;;;;85.20;50.53;;;;;;;8.24;74.72;94376.94;5049171;28;20465;-64
2021/12/29 08:11:53;;;;;;;75.60;46.47;;;;;;;8.43;74.05;94377.31;5044390;28;20482;-66
2021/12/29 08:14:20;;;;;;;73.13;44.80;;;;;;;8.50;73.26;94381.25;5048758;28;20442;-64
2021/12/29 08:16:47;;;;;;;61.63;39.80;;;;;;;8.38;73.71;94378.06;5051311;28;20478;-65
2021/12/29 08:19:16;;;;;;;61.77;40.47;;;;;;;7.85;73.72;94371.19;5048836;28;20995;-63
2021/12/29 08:21:43;;;;;;;66.87;41.93;;;;;;;7.41;76.79;94377.63;5051515;28;20542;-63
2021/12/29 08:24:10;;;;;;;69.10;43.57;;;;;;;7.49;78.12;94379.00;5051301;28;20469;-64
2021/12/29 08:26:37;;;;;;;72.10;45.80;;;;;;;7.66;77.73;94375.25;5051743;28;20537;-65
2021/12/29 08:29:04;;;;;;;78.57;51.20;;;;;;;7.65;78.29;94368.44;5047406;28;20447;-65
2021/12/29 08:31:31;;;;;;;99.90;61.37;;;;;;;7.90;77.66;94375.69;5046330;28;20443;-64
2021/12/29 08:33:59;;;;;;;98.83;59.13;;;;;;;7.76;77.76;94377.13;5045406;28;20902;-66
2021/12/29 08:36:26;;;;;;;128.77;87.70;;;;;;;7.95;76.66;94378.31;5050965;28;20450;-64
2021/12/29 08:38:53;;;;;;;151.87;107.93;;;;;;;7.92;76.56;94368.34;5048299;28;20450;-66
2021/12/29 08:41:20;;;;;;;106.87;70.20;;;;;;;7.78;78.03;94367.22;5046940;28;20447;-65
2021/12/29 08:43:47;;;;;;;84.60;55.10;;;;;;;7.88;77.63;94362.09;5040838;28;20450;-65
2021/12/29 08:46:15;;;;;;;84.27;55.20;;;;;;;7.76;77.28;94332.78;5040713;28;20442;-65
2021/12/29 08:48:44;;;;;;;86.30;56.57;;;;;;;8.17;77.48;94365.94;5040224;28;20470;-64
2021/12/29 08:51:12;;;;;;;78.40;52.47;;;;;;;7.99;77.88;94379.38;5045403;28;20439;-63
2021/12/29 08:53:43;;;;;;;71.90;45.93;;;;;;;8.09;77.22;94369.00;5046937;28;20483;-63
2021/12/29 08:56:10;;;;;;;74.13;46.83;;;;;;;7.67;78.48;94378.63;5048794;28;20894;-65
2021/12/29 08:58:37;;;;;;;70.47;45.20;;;;;;;7.49;78.69;94360.75;5050692;28;20449;-67
2021/12/29 09:01:04;;;;;;;71.77;44.93;;;;;;;7.78;77.82;94362.81;5050977;28;20439;-64
2021/12/29 09:03:32;;;;;;;64.43;40.83;;;;;;;7.90;77.48;94357.41;5050343;28;20453;-65
2021/12/29 09:05:59;;;;;;;67.53;43.13;;;;;;;8.31;77.18;94356.63;5050237;28;20439;-63
2021/12/29 09:08:26;;;;;;;78.70;47.67;;;;;;;8.57;76.91;94360.94;5050012;28;20517;-64
2021/12/29 09:10:53;;;;;;;80.37;50.53;;;;;;;8.43;76.31;94365.03;5045671;28;20435;-64
2021/12/29 09:13:21;;;;;;;77.27;49.43;;;;;;;8.56;76.34;94354.13;5049172;28;20985;-64
2021/12/29 09:15:49;;;;;;;75.87;46.67;;;;;;;8.89;75.80;94345.88;5050799;28;20457;-62
2021/12/29 09:18:17;;;;;;;71.73;46.87;;;;;;;8.72;76.72;94342.69;5048368;28;21001;-63
2021/12/29 09:20:46;;;;;;;98.07;69.37;;;;;;;9.11;75.77;94340.41;5049134;28;20443;-62
2021/12/29 09:23:14;;;;;;;103.37;73.00;;;;;;;9.57;73.15;94325.53;5048609;28;20447;-66
2021/12/29 09:25:44;;;;;;;104.30;68.80;;;;;;;9.52;72.86;94333.41;5044701;28;20514;-62
2021/12/29 09:28:14;;;;;;;65.87;39.87;;;;;;;8.73;75.21;94333.81;5037892;28;20480;-61
2021/12/29 09:30:44;;;;;;;61.83;39.97;;;;;;;8.47;76.21;94329.53;5048521;28;20442;-64
2021/12/29 09:33:16;;;;;;;62.43;38.67;;;;;;;9.07;76.21;94329.69;5045616;28;20518;-65
2021/12/29 09:35:47;;;;;;;72.67;43.63;;;;;;;8.79;77.22;94324.16;5040310;28;20539;-64
2021/12/29 09:38:16;;;;;;;73.63;48.30;;;;;;;8.54;77.50;94321.47;5044963;28;20474;-63
2021/12/29 09:40:45;;;;;;;75.07;49.87;;;;;;;9.06;76.05;94312.47;5043484;28;20447;-63
2021/12/29 09:43:14;;;;;;;85.43;53.10;;;;;;;9.03;75.67;94306.97;5038537;28;20454;-62
2021/12/29 09:45:43;;;;;;;77.67;50.57;;;;;;;9.28;75.77;94306.19;5038093;28;21316;-63
2021/12/29 09:48:10;;;;;;;78.53;50.47;;;;;;;9.47;75.14;94315.09;5040726;28;20847;-62
2021/12/29 09:50:37;;;;;;;76.23;49.83;;;;;;;9.55;74.90;94307.50;5050087;28;20472;-63
2021/12/29 09:53:06;;;;;;;63.80;42.00;;;;;;;10.38;71.92;94306.06;5042619;28;20906;-62
2021/12/29 09:55:36;;;;;;;67.83;45.23;;;;;;;9.50;74.53;94306.72;5039875;28;20451;-65
2021/12/29 09:58:04;;;;;;;63.80;41.27;;;;;;;9.53;75.82;94298.34;5044354;28;20439;-64
2021/12/29 10:00:39;;;;;;;57.30;35.83;;;;;;;9.56;74.74;94306.44;5049759;28;20443;-64
2021/12/29 10:03:09;;;;;;;51.70;33.20;;;;;;;9.33;76.55;94290.50;5049497;28;20819;-64
2021/12/29 10:05:39;;;;;;;48.73;32.93;;;;;;;9.18;77.47;94289.47;5045290;28;20450;-63
2021/12/29 10:08:24;;;;;;;42.43;27.17;;;;;;;9.36;77.67;94290.00;5043153;28;20863;-66
2021/12/29 10:11:01;;;;;;;50.17;33.53;;;;;;;9.45;76.54;94288.44;5048346;28;20447;-63
2021/12/29 10:13:34;;;;;;;69.47;47.97;;;;;;;9.23;77.21;94286.84;5045855;28;20486;-65
2021/12/29 10:16:25;;;;;;;46.90;31.17;;;;;;;9.58;76.13;94272.19;5039461;28;20487;-66
2021/12/29 10:19:03;;;;;;;44.90;29.47;;;;;;;9.51;76.77;94271.66;5034589;28;21152;-64
2021/12/29 10:21:30;;;;;;;44.07;29.73;;;;;;;9.72;75.80;94247.06;5033731;28;20831;-65
2021/12/29 10:24:01;;;;;;;46.37;29.90;;;;;;;9.77;75.65;94262.75;5034309;28;20455;-65
2021/12/29 10:26:41;;;;;;;45.17;32.63;;;;;;;9.81;75.95;94255.94;5034403;28;20519;-65
2021/12/29 10:29:12;;;;;;;43.67;30.10;;;;;;;9.89;75.29;94268.47;5034682;28;20829;-65
2021/12/29 10:31:43;;;;;;;41.80;28.67;;;;;;;9.87;75.70;94263.50;5035232;28;20542;-64
2021/12/29 10:34:19;;;;;;;46.40;31.07;;;;;;;9.82;74.97;94257.47;5032683;28;20482;-64
2021/12/29 10:36:52;;;;;;;45.17;31.30;;;;;;;9.62;76.92;94258.31;5033811;28;20450;-66
2021/12/29 10:39:23;;;;;;;45.83;32.00;;;;;;;9.68;77.35;94251.25;5036150;28;20451;-63
2021/12/29 10:41:59;;;;;;;48.60;33.93;;;;;;;9.78;76.66;94257.22;5036010;28;20491;-65
2021/12/29 10:44:29;;;;;;;83.33;57.63;;;;;;;9.73;76.73;94251.22;5037256;28;21015;-62
2021/12/29 10:46:59;;;;;;;55.10;37.37;;;;;;;9.79;77.23;94247.56;5039935;28;20508;-61
2021/12/29 10:49:29;;;;;;;43.63;29.53;;;;;;;9.51;76.56;94255.97;5037779;28;20572;-65
2021/12/29 10:51:58;;;;;;;41.00;28.70;;;;;;;9.84;76.40;94255.41;5038425;28;20817;-64
2021/12/29 10:54:28;;;;;;;42.67;30.83;;;;;;;9.79;75.86;94253.59;5037888;28;20522;-64
2021/12/29 10:57:01;;;;;;;45.40;30.97;;;;;;;9.66;76.30;94248.13;5036694;28;20444;-62
2021/12/29 10:59:31;;;;;;;45.83;31.87;;;;;;;9.99;76.38;94235.22;5033307;28;20973;-63
2021/12/29 11:01:59;;;;;;;48.60;33.10;;;;;;;10.06;75.70;94235.72;5030190;28;20439;-62
2021/12/29 11:04:26;;;;;;;55.03;36.53;;;;;;;10.05;75.42;94244.59;5030049;28;20450;-63
2021/12/29 11:06:56;;;;;;;48.63;33.37;;;;;;;10.16;75.07;94240.91;5028023;28;20447;-64
2021/12/29 11:09:35;;;;;;;50.50;33.10;;;;;;;9.88;75.89;94240.72;5032389;28;20455;-63
2021/12/29 11:12:11;;;;;;;48.70;34.10;;;;;;;10.17;75.51;94233.84;5031297;28;20474;-64
2021/12/29 11:14:42;;;;;;;47.97;31.83;;;;;;;9.98;75.38;94245.94;5027828;28;20477;-63
2021/12/29 11:17:19;;;;;;;44.03;30.97;;;;;;;9.82;75.65;94231.31;5034311;28;20868;-64
2021/12/29 11:19:56;;;;;;;42.50;29.00;;;;;;;9.62;76.29;94215.69;5035313;28;20502;-64
2021/12/29 11:22:26;;;;;;;45.90;29.70;;;;;;;9.70;76.17;94225.59;5036811;28;20446;-64
2021/12/29 11:25:00;;;;;;;54.03;35.57;;;;;;;9.68;75.69;94222.47;5041571;28;20446;-65
2021/12/29 11:27:29;;;;;;;57.37;38.07;;;;;;;9.72;76.76;94220.91;5037209;28;20817;-64
2021/12/29 11:29:59;;;;;;;59.63;42.57;;;;;;;9.83;76.72;94217.22;5037283;28;20447;-63
2021/12/29 11:32:35;;;;;;;78.93;50.93;;;;;;;9.92;76.85;94210.38;5039364;28;20439;-68
2021/12/29 11:35:07;;;;;;;84.30;54.17;;;;;;;10.10;75.32;94204.56;5039026;28;20533;-63
2021/12/29 11:37:36;;;;;;;87.60;55.30;;;;;;;10.31;74.08;94200.03;5040632;28;20887;-66
2021/12/29 11:40:06;;;;;;;83.97;54.60;;;;;;;10.33;74.15;94197.94;5039350;28;20466;-65
2021/12/29 11:42:33;;;;;;;57.03;38.20;;;;;;;10.37;73.40;94204.97;5038335;28;20451;-63
2021/12/29 11:45:00;;;;;;;44.47;31.53;;;;;;;9.97;73.63;94203.28;5037942;28;20447;-63
2021/12/29 11:47:28;;;;;;;45.97;32.47;;;;;;;10.50;73.70;94195.72;5039892;28;20439;-64